Laurence M. Gould — WCX7445 — position and weather

sailwx.info

Track history (hours):
 
Tides and Currents Weather Stations Pressure Air Temp Water Temp Dewpoint Dewpoint Depression Visibility Wind Speed Wind Dir Waves Ship Positions

Oceanographic research ship Laurence M. Gould (USA)

Detailed information on ship capabilities available from University of Delaware's Ocean Information Center.

Owner: Offshore Service Vessels LLC, GALLIANO, LA. More information available from US FCC via Universal Licensing System and Coast Guard Vessel Documentation Center.

Last reported at 2017-Jun-15 14:00 UTC. Time now 2017-Jun-25 05:19 UTC.
Position S 36°36' W 073°00'.
Warning: this ship's position is 9 days out of date.

Type: Ship. MMSI: 368138000.

Wind from 030 at 17 knots

Barometer 1010.6 mb
Air temperature 13.8 ° C
Dewpoint 8.3 ° C

Date/timePositionNaut miles runAvg speedWind from/ knotsBaromVisibWave heightAir tempDewpointWater temp
2017-Jun-15 14:00S 36°36' W 073°00'0 0.0 030 / 171010.6 13.8 8.3
2017-Jun-15 13:00S 36°36' W 073°00'0 0.0 030 / 141011.0 13.6 8.6
2017-Jun-15 12:00S 36°36' W 073°00'0 0.0 030 / 161011.1 13.7 9.1
2017-Jun-15 11:00S 36°36' W 073°00'0 0.0 020 / 151011.4 13.5 9.6
2017-Jun-15 10:00S 36°36' W 073°00'0 0.0 020 / 151011.8 13.5 9.8
2017-Jun-15 09:00S 36°36' W 073°00'0 0.0 020 / 151012.4 13.410.1
2017-Jun-15 08:00S 36°36' W 073°00'0 0.0 020 / 161012.7 13.410.1
2017-Jun-15 07:00S 36°36' W 073°00'0 0.0 030 / 191013.2 13.210.3
2017-Jun-15 06:00S 36°36' W 073°00'0 0.0 020 / 141014.0 12.710.7
2017-Jun-15 05:00S 36°36' W 073°00'0 0.0 020 / 141014.5 12.311.1
2017-Jun-15 04:00S 36°36' W 073°00'0 0.0 010 / 141014.8 12.611.1
2017-Jun-15 03:00S 36°36' W 073°00'0 0.0 020 / 121015.1 12.810.7
2017-Jun-15 02:00S 36°36' W 073°00'0 0.0 020 / 151015.2 13.010.2
2017-Jun-15 01:00S 36°36' W 073°00'0 0.0 020 / 121015.5 12.810.4
2017-Jun-15 00:00S 36°36' W 073°00'0 0.0 020 / 111015.8 12.710.8
2017-Jun-14 23:00S 36°36' W 073°00'0 0.0 020 / 121015.7 12.510.7
2017-Jun-14 22:00S 36°36' W 073°00'0 0.0 020 / 111015.6 12.510.4
2017-Jun-14 21:00S 36°36' W 073°00'0 0.0 020 / 161015.0 12.210.4
2017-Jun-14 20:00S 36°36' W 073°00'0 0.0 020 / 121015.1 11.910.3
2017-Jun-14 19:00S 36°36' W 073°00'0 0.0 020 / 111015.4 11.510.0
2017-Jun-14 18:00S 36°36' W 073°00'0 0.0 010 / 121015.8 11.9 9.8
2017-Jun-14 17:00S 36°36' W 073°00'0 0.0 020 / 131015.9 12.4 9.4
2017-Jun-14 16:00S 36°36' W 073°00'0 0.0 020 / 131016.0 12.5 9.7
2017-Jun-14 15:00S 36°36' W 073°00'0 0.0 010 / 91016.2 12.1 9.7
2017-Jun-14 14:00S 36°36' W 073°00'0 0.0 010 / 81016.0 11.7 9.1
2017-Jun-14 13:00S 36°36' W 073°00'0 0.0 010 / 61015.5 11.6 9.0
2017-Jun-14 12:00S 36°36' W 073°00'0 0.0 270 / 11015.3 8.4 6.3
2017-Jun-14 11:00S 36°36' W 073°00'0 0.0 200 / 21014.9 8.1 5.7
2017-Jun-14 10:00S 36°36' W 073°00'0 0.0 200 / 21015.2 8.0 5.6
2017-Jun-14 09:00S 36°36' W 073°00'0 0.0 200 / 11015.5 8.2 5.8
2017-Jun-14 08:00S 36°36' W 073°00'0 0.0 200 / 11015.8 8.2 5.8
2017-Jun-14 07:00S 36°36' W 073°00'0 0.0 200 / 21016.0 8.4 5.9
2017-Jun-14 06:00S 36°36' W 073°00'0 0.0 200 / 21016.2 8.5 5.9
2017-Jun-14 05:00S 36°36' W 073°00'0 0.0 060 / 31016.6 10.1 6.7
2017-Jun-14 04:00S 36°36' W 073°00'0 0.0 050 / 41017.0 10.1 6.7
2017-Jun-14 03:00S 36°36' W 073°00'0 0.0 070 / 61017.4 10.2 6.6
2017-Jun-14 02:00S 36°36' W 073°00'0 0.0 060 / 31017.8 10.5 6.3
2017-Jun-14 01:00S 36°36' W 073°00'0 0.0 060 / 41017.8 10.6 6.3
2017-Jun-14 00:00S 36°36' W 073°00'0 0.0 070 / 51017.7 10.5 6.6
2017-Jun-13 23:00S 36°36' W 073°00'0 0.0 070 / 61017.8 10.7 6.5
2017-Jun-13 22:00S 36°36' W 073°00'0 0.0 050 / 51017.5 11.3 7.2
2017-Jun-13 21:00S 36°36' W 073°00'0 0.0 040 / 51017.4 11.7 7.5
2017-Jun-13 20:00S 36°36' W 073°00'0 0.0 030 / 61017.3 12.0 7.7
2017-Jun-13 19:00S 36°36' W 073°00'0 0.0 030 / 71017.6 11.7 7.5
2017-Jun-13 18:00S 36°36' W 073°00'0 0.0 040 / 61017.9 11.7 7.2
2017-Jun-13 17:00S 36°36' W 073°00'0 0.0 040 / 21019.2 11.3 6.1
2017-Jun-13 16:00S 36°36' W 073°00'0 0.0 170 / 11019.8 10.3 5.5
2017-Jun-13 15:00S 36°36' W 073°00'0 0.0 160 / 21019.7 9.2 5.0
2017-Jun-13 14:00S 36°36' W 073°00'0 0.0 210 / 11019.5 8.6 4.2
2017-Jun-13 13:00S 36°36' W 073°00'0 0.0 200 / 31019.1 7.8 4.2
2017-Jun-13 12:00S 36°36' W 073°00'0 0.0 190 / 21019.1 8.4 5.2
2017-Jun-13 11:00S 36°36' W 073°00'0 0.0 020 / 31018.1 8.3 5.0
2017-Jun-13 10:00S 36°36' W 073°00'0 0.0 220 / 21018.7 7.9 4.5
2017-Jun-13 09:00S 36°36' W 073°00'0 0.0 190 / 21019.2 8.6 4.6
2017-Jun-13 08:00S 36°36' W 073°00'0 0.0 210 / 21018.9 8.1 4.3
2017-Jun-13 07:00S 36°36' W 073°00'0 0.0 190 / 21019.2 8.6 4.3
2017-Jun-13 06:00S 36°36' W 073°00'0 0.0 200 / 31019.3 8.9 4.3
2017-Jun-13 05:00S 36°36' W 073°00'0 0.0 200 / 21019.2 8.7 4.4
2017-Jun-13 04:00S 36°36' W 073°00'0 0.0 200 / 21019.0 8.8 4.3
2017-Jun-13 03:00S 36°36' W 073°00'0 0.0 200 / 31018.5 9.0 5.0
2017-Jun-13 02:00S 36°36' W 073°00'0 0.0 200 / 11018.6 9.1 5.6
2017-Jun-13 01:00S 36°36' W 073°00'0 0.0 170 / 11018.7 10.0 5.6
2017-Jun-13 00:00S 36°36' W 073°00'0 0.0 210 / 41018.3 10.8 4.9
2017-Jun-12 23:00S 36°36' W 073°00'0 0.0 230 / 41017.7 10.3 4.2
2017-Jun-12 22:00S 36°36' W 073°00'0 0.0 250 / 41017.0 10.5 3.1
2017-Jun-12 21:00S 36°36' W 073°00'0 0.0 240 / 41016.7 11.2 2.1
2017-Jun-12 20:00S 36°36' W 073°00'0 0.0 230 / 71017.0 11.3 3.9
2017-Jun-12 19:00S 36°36' W 073°00'0 0.0 200 / 81017.1 11.1 3.7
2017-Jun-12 18:00S 36°36' W 073°00'0 0.0 190 / 101017.9 10.5 2.9
2017-Jun-12 17:00S 36°36' W 073°00'0 0.0 190 / 81018.7 9.6 2.4
2017-Jun-12 16:00S 36°36' W 073°00'0 0.0 180 / 71019.4 8.5 2.4
2017-Jun-12 15:00S 36°36' W 073°00'0 0.0 190 / 61019.5 7.0 2.1
2017-Jun-12 14:00S 36°36' W 073°00'0 0.0 200 / 51019.4 6.5 1.8
2017-Jun-12 13:00S 36°36' W 073°00'0 0.0 210 / 41019.5 6.5 1.7
2017-Jun-12 12:00S 36°36' W 073°00'0 0.0 200 / 41019.6 6.6 1.8
2017-Jun-12 11:00S 36°36' W 073°00'0 0.0 200 / 51019.2 7.1 1.9
2017-Jun-12 10:00S 36°36' W 073°00'0 0.0 180 / 61019.3 6.5 2.2
2017-Jun-12 09:00S 36°36' W 073°00'0 0.0 180 / 71019.3 6.6 2.5
2017-Jun-12 08:00S 36°36' W 073°00'0 0.0 190 / 51019.5 7.0 2.1
2017-Jun-12 07:00S 36°36' W 073°00'0 0.0 190 / 51019.6 6.6 2.0
2017-Jun-12 06:00S 36°36' W 073°00'0 0.0 200 / 31020.2 7.5 2.5
2017-Jun-12 05:00S 36°36' W 073°00'0 0.0 210 / 11021.1 8.3 1.4
2017-Jun-12 04:00S 36°36' W 073°00'0 0.0 240 / 21021.2 8.3 1.7
2017-Jun-12 03:00S 36°36' W 073°00'0 0.0 190 / 41021.0 9.2 1.9
2017-Jun-12 02:00S 36°36' W 073°00'0 0.0 200 / 51020.5 9.7 1.8
2017-Jun-12 01:00S 36°36' W 073°00'0 0.0 190 / 61020.3 10.1 2.6
2017-Jun-12 00:00S 36°36' W 073°00'0 0.0 170 / 51020.1 10.5 4.8
2017-Jun-11 23:00S 36°36' W 073°00'0 0.0 210 / 71020.0 11.2 5.5
2017-Jun-11 22:00S 36°36' W 073°00'0 0.0 220 / 91019.9 11.8 5.7
2017-Jun-11 21:00S 36°36' W 073°00'0 0.0 220 / 91019.4 12.2 4.8
2017-Jun-11 20:00S 36°36' W 073°00'0 0.0 220 / 111019.4 12.2 3.7
2017-Jun-11 19:00S 36°36' W 073°00'0 0.0 210 / 111019.7 12.6 2.7
2017-Jun-11 18:00S 36°36' W 073°00'0 0.0 180 / 101020.3 12.5 1.8
2017-Jun-11 17:00S 36°36' W 073°00'0 0.0 180 / 121021.4 11.7 1.9
2017-Jun-11 16:00S 36°36' W 073°00'0 0.0 180 / 131022.2 10.5 1.7
2017-Jun-11 15:00S 36°36' W 073°00'0 0.0 180 / 141022.6 9.6 2.1
2017-Jun-11 14:00S 36°36' W 073°00'0 0.0 190 / 151022.8 8.9 2.3
2017-Jun-11 13:00S 36°36' W 073°00'0 0.0 200 / 121022.7 8.7 2.9
2017-Jun-11 12:00S 36°36' W 073°00'0 0.0 190 / 131022.5 8.8 3.3
2017-Jun-11 11:00S 36°36' W 073°00'0 0.0 190 / 131022.2 9.0 3.8
2017-Jun-11 10:00S 36°36' W 073°00'0 0.0 190 / 121022.1 9.1 4.6
2017-Jun-11 09:00S 36°36' W 073°00'0 0.0 180 / 111022.2 9.4 5.4
2017-Jun-11 08:00S 36°36' W 073°00'0 0.0 190 / 101022.3 9.4 5.9
2017-Jun-11 07:00S 36°36' W 073°00'0 0.0 200 / 71022.3 9.4 6.4
2017-Jun-11 06:00S 36°36' W 073°00'0 0.0 200 / 71022.4 9.8 6.8
2017-Jun-11 05:00S 36°36' W 073°00'0 0.0 210 / 71022.7 10.3 7.1
2017-Jun-11 04:00S 36°36' W 073°00'0 0.0 200 / 111022.7 10.6 7.1
2017-Jun-11 03:00S 36°36' W 073°00'0 0.0 210 / 111022.2 11.1 7.5
2017-Jun-11 02:00S 36°36' W 073°00'0 0.0 210 / 111021.9 11.5 7.9
2017-Jun-11 01:00S 36°36' W 073°00'0 0.0 200 / 141021.7 11.9 8.4
2017-Jun-11 00:00S 36°36' W 073°00'0 0.0 210 / 131021.2 12.3 8.1
2017-Jun-10 23:00S 36°36' W 073°00'0 0.0 210 / 121021.0 12.8 8.4
2017-Jun-10 22:00S 36°36' W 073°00'0 0.0 220 / 111021.0 13.4 9.5
2017-Jun-10 21:00S 36°36' W 073°00'0 0.0 220 / 91021.2 14.011.1
2017-Jun-10 20:00S 36°36' W 073°00'0 0.0 220 / 101021.2 14.211.1
2017-Jun-10 19:00S 36°36' W 073°00'0 0.0 220 / 91021.6 14.711.0
2017-Jun-10 18:00S 36°36' W 073°00'0 0.0 210 / 91022.1 14.410.8
2017-Jun-10 17:00S 36°36' W 073°00'0 0.0 200 / 61022.8 13.711.3
2017-Jun-10 16:00S 36°36' W 073°00'0 0.0 170 / 11023.5 13.211.5
2017-Jun-10 15:00S 36°36' W 073°00'0 0.0 200 / 31024.0 12.610.4
2017-Jun-10 14:00S 36°36' W 073°00'0 0.0 200 / 41023.8 10.5 9.0
2017-Jun-10 13:00S 36°36' W 073°00'0 0.0 170 / 41023.5 10.0 8.8
2017-Jun-10 12:00S 36°36' W 073°00'0 0.0 200 / 71023.4 10.9 9.2
2017-Jun-10 11:00S 36°36' W 073°00'0 0.0 190 / 31023.6 9.2 8.3
2017-Jun-10 10:00S 36°36' W 073°00'0 0.0 190 / 31023.9 9.8 8.6
2017-Jun-10 09:00S 36°36' W 073°00'0 0.0 190 / 41024.2 9.7 8.7
2017-Jun-10 08:00S 36°36' W 073°00'0 0.0 190 / 51024.7 9.8 9.0
2017-Jun-10 07:00S 36°36' W 073°00'0 0.0 170 / 51024.6 8.9 8.2
2017-Jun-10 06:00S 36°36' W 073°00'0 0.0 190 / 81025.2 10.2 9.1
2017-Jun-10 05:00S 36°36' W 073°00'0 0.0 180 / 61025.7 10.3 9.1
2017-Jun-10 04:00S 36°36' W 073°00'0 0.0 200 / 101026.1 11.3 9.9
2017-Jun-10 03:00S 36°36' W 073°00'0 0.0 200 / 81026.1 11.510.2
2017-Jun-10 02:00S 36°36' W 073°00'0 0.0 200 / 71026.3 11.610.1
2017-Jun-10 01:00S 36°36' W 073°00'0 0.0 200 / 61026.6 11.910.2
2017-Jun-10 00:00S 36°36' W 073°00'0 0.0 210 / 61026.5 12.410.3
2017-Jun-09 23:00S 36°36' W 073°00'0 0.0 220 / 21026.4 12.410.2
2017-Jun-09 22:00S 36°36' W 073°00'0 0.0 240 / 41026.5 12.810.4
2017-Jun-09 21:00S 36°36' W 073°00'0 0.0 270 / 31026.6 13.310.3
2017-Jun-09 20:00S 36°36' W 073°00'0 0.0 010 / 21027.0 13.9 9.5
2017-Jun-09 19:00S 36°36' W 073°00'0 0.0 030 / 21027.6 13.8 9.1
2017-Jun-09 18:00S 36°36' W 073°00'0 0.0 040 / 31028.2 13.5 8.8
2017-Jun-09 17:00S 36°36' W 073°00'0 0.0 080 / 11029.1 14.0 8.9
2017-Jun-09 16:00S 36°36' W 073°00'0 0.0 060 / 31029.8 13.2 8.7
2017-Jun-09 15:00S 36°36' W 073°00'0 0.0 040 / 41030.2 12.0 8.5
2017-Jun-09 14:00S 36°36' W 073°00'0 0.0 070 / 21030.5 11.2 8.1
2017-Jun-09 13:00S 36°36' W 073°00'0 0.0 040 / 11030.3 10.6 7.9
2017-Jun-09 12:00S 36°36' W 073°00'0 0.0 360 / 21030.4 10.5 7.6
2017-Jun-09 11:00S 36°36' W 073°00'0 0.0 010 / 41030.1 10.2 7.0
2017-Jun-09 10:00S 36°36' W 073°00'0 0.0 250 / 21030.9 9.2 6.6
2017-Jun-09 09:00S 36°36' W 073°00'0 0.0 180 / 31031.2 9.3 6.5
2017-Jun-09 08:00S 36°36' W 073°00'0 0.0 210 / 21031.3 9.3 6.6
2017-Jun-09 07:00S 36°36' W 073°00'0 0.0 210 / 11031.7 9.5 5.9
2017-Jun-09 06:00S 36°36' W 073°00'0 0.0 210 / 21032.0 9.3 5.9
2017-Jun-09 05:00S 36°36' W 073°00'0 0.0 210 / 31032.4 9.9 6.5
2017-Jun-09 04:00S 36°36' W 073°00'0 0.0 190 / 21032.6 10.7 7.3
2017-Jun-09 03:00S 36°36' W 073°00'0 0.0 320 1033.0 11.5 7.6
2017-Jun-09 02:00S 36°36' W 073°00'0 0.0 020 / 11033.3 11.7 7.0
2017-Jun-09 01:00S 36°36' W 073°00'0 0.0 010 1033.5 11.9 6.7
2017-Jun-09 00:00S 36°36' W 073°00'0 0.0 020 / 11033.2 11.7 6.4
2017-Jun-08 23:00S 36°36' W 073°00'0 0.0 350 1033.1 11.9 7.2
2017-Jun-08 22:00S 36°36' W 073°00'0 0.0 340 / 11033.1 12.1 7.1
2017-Jun-08 21:00S 36°36' W 073°00'0 0.0 020 / 11032.9 12.7 7.3
2017-Jun-08 20:00S 36°36' W 073°00'0 0.0 040 / 21033.0 13.3 7.2
2017-Jun-08 19:00S 36°36' W 073°00'0 0.0 040 / 11033.2 12.9 6.9
2017-Jun-08 18:00S 36°36' W 073°00'0 0.0 040 / 31033.5 12.3 6.6
2017-Jun-08 17:00S 36°36' W 073°00'0 0.0 150 / 21033.6 11.6 6.7
2017-Jun-08 16:00S 36°36' W 073°00'0 0.0 160 / 11033.7 10.2 6.9
2017-Jun-08 15:00S 36°36' W 073°00'0 0.0 180 / 21033.6 8.4 6.2
2017-Jun-08 14:00S 36°36' W 073°00'6 6.0 180 / 11033.0 8.5 5.8
2017-Jun-08 13:00S 36°42' W 073°00'6 6.0 180 / 11032.3 9.2 6.9
2017-Jun-08 12:00S 36°36' W 073°00'6 6.0 180 / 21031.5 9.9 7.0
2017-Jun-08 11:00S 36°30' W 073°00'5 4.8 150 / 41030.9 10.9 6.1
2017-Jun-08 10:00S 36°30' W 073°06'5 4.8 140 / 31030.5 11.4 4.6
2017-Jun-08 09:00S 36°30' W 073°12'8 7.7 100 / 41030.0 11.2 5.6
2017-Jun-08 08:00S 36°36' W 073°18'8 7.7 150 / 51029.8 11.2 5.8
2017-Jun-08 07:00S 36°42' W 073°24'0 0.0 180 / 51029.2 11.2 5.8
2017-Jun-08 06:00S 36°42' W 073°24'8 7.7 210 / 71028.8 11.0 5.9
2017-Jun-08 05:00S 36°48' W 073°30'8 7.7 170 / 81028.3 11.0 5.5
2017-Jun-08 04:00S 36°54' W 073°36'6 6.0 170 / 121027.2 11.4 5.5
2017-Jun-08 03:00S 37°00' W 073°36'8 7.7 190 / 201026.2 11.5 5.3
2017-Jun-08 02:00S 37°06' W 073°42'6 6.0 200 / 171025.2 11.3 5.3
2017-Jun-08 01:00S 37°12' W 073°42'8 7.7 200 / 221024.0 11.5 4.6
2017-Jun-08 00:00S 37°18' W 073°48'6 6.0 200 / 151022.8 10.6 6.2
2017-Jun-07 23:00S 37°24' W 073°48'0 0.0 200 / 181021.5 10.7 5.6
2017-Jun-07 22:00S 37°24' W 073°48'8 7.7 200 / 281019.9 11.0 4.8
2017-Jun-07 21:00S 37°30' W 073°54'6 6.0 210 / 281018.6 11.8 5.3
2017-Jun-07 20:00S 37°36' W 073°54'1312.9 210 / 281017.6 12.2 4.7
2017-Jun-07 19:00S 37°48' W 074°00'6 6.0 210 / 291017.0 12.1 4.8
2017-Jun-07 18:00S 37°54' W 074°00'6 6.0 220 / 291016.4 12.2 5.3
2017-Jun-07 17:00S 38°00' W 074°00'6 6.0 220 / 291015.8 11.5 7.9
2017-Jun-07 16:00S 38°06' W 074°00'6 6.0 240 / 241015.1 12.7 8.2
2017-Jun-07 15:00S 38°12' W 074°00'6 6.0 240 / 221014.3 12.9 8.2
2017-Jun-07 14:00S 38°18' W 074°00'6 6.0 240 / 211013.6 12.7 8.5
2017-Jun-07 13:00S 38°24' W 074°00'6 6.0 240 / 201012.7 12.1 8.9
2017-Jun-07 12:00S 38°30' W 074°00'6 6.0 240 / 211011.8 12.8 9.4
2017-Jun-07 11:00S 38°36' W 074°00'1212.0 240 / 231010.9 12.4 9.8
2017-Jun-07 10:00S 38°48' W 074°00'0 0.0 240 / 221010.2 12.710.3
2017-Jun-07 09:00S 38°48' W 074°00'1212.0 250 / 201010.1 13.011.0
2017-Jun-07 08:00S 39°00' W 074°00'6 6.0 260 / 201010.2 12.711.4
2017-Jun-07 07:00S 39°06' W 074°00'6 6.0 270 / 171010.4 12.811.8
2017-Jun-07 06:00S 39°12' W 074°00'6 6.0 280 / 171010.8 12.711.9
2017-Jun-07 05:00S 39°18' W 074°00'6 6.0 280 / 181011.3 12.711.9
2017-Jun-07 04:00S 39°24' W 074°00'6 6.0 280 / 181011.5 12.711.8
2017-Jun-07 03:00S 39°30' W 074°00'1212.0 290 / 171011.8 12.511.8
2017-Jun-07 02:00S 39°42' W 074°00'6 6.0 290 / 191011.9 12.511.6
2017-Jun-07 01:00S 39°48' W 074°00'6 6.0 290 / 201012.0 12.311.5
2017-Jun-07 00:00S 39°54' W 074°00'6 6.0 300 / 221011.9 12.211.3
2017-Jun-06 23:00S 40°00' W 074°00'6 6.0 310 / 221012.0 11.910.9
2017-Jun-06 22:00S 40°06' W 074°00'1212.0 310 / 211012.3 11.710.6
2017-Jun-06 21:00S 40°18' W 074°00'6 6.0 300 / 211012.5 11.710.3
2017-Jun-06 20:00S 40°24' W 074°00'6 6.0 300 / 211012.7 12.210.0
2017-Jun-06 19:00S 40°30' W 074°00'1212.0 300 / 211012.8 11.810.3
2017-Jun-06 18:00S 40°42' W 074°00'6 6.0 310 / 221013.2 11.810.6
2017-Jun-06 17:00S 40°48' W 074°00'6 6.0 320 / 211013.9 12.010.6
2017-Jun-06 16:00S 40°54' W 074°00'1212.0 320 / 201014.3 12.410.4
2017-Jun-06 15:00S 41°06' W 074°00'6 6.0 320 / 221014.2 12.110.6
2017-Jun-06 14:00S 41°12' W 074°00'6 6.0 310 / 221013.9 12.110.3
2017-Jun-06 13:00S 41°18' W 074°00'1212.0 310 / 221013.6 11.910.3
2017-Jun-06 12:00S 41°30' W 074°00'7 7.5 310 / 231013.5 12.010.1
2017-Jun-06 11:00S 41°36' W 073°54'7 7.5 300 / 231013.6 12.4 9.8
2017-Jun-06 10:00S 41°42' W 073°48'0 0.0 300 / 191013.8 11.5 9.9
2017-Jun-06 09:00S 41°42' W 073°48'4 4.5 300 / 181014.6 11.3 9.6
2017-Jun-06 08:00S 41°42' W 073°42'9 9.0 310 / 221015.2 11.810.1
2017-Jun-06 07:00S 41°42' W 073°30'7 7.5 350 / 161015.6 10.7 9.1
2017-Jun-06 06:00S 41°48' W 073°24'7 7.5 010 / 161016.1 10.9 9.2
2017-Jun-06 05:00S 41°54' W 073°18'4 4.5 330 / 141016.6 10.6 9.7
2017-Jun-06 04:00S 41°54' W 073°24'7 7.5 350 / 161016.8 10.9 9.3
2017-Jun-06 03:00S 42°00' W 073°18'6 6.0 360 / 201016.8 11.3 9.4
2017-Jun-06 02:00S 42°06' W 073°18'1312.8 360 / 181016.7 11.8 9.3
2017-Jun-06 01:00S 42°18' W 073°12'1212.0 350 / 191016.8 11.7 8.9
2017-Jun-06 00:00S 42°30' W 073°12'1212.0 010 / 201016.8 11.0 9.0
2017-Jun-05 23:00S 42°42' W 073°12'6 6.0 010 / 191016.7 11.0 9.0
2017-Jun-05 22:00S 42°48' W 073°12'1212.0 010 / 241016.3 10.8 8.7
2017-Jun-05 21:00S 43°00' W 073°12'1212.0 010 / 221016.2 11.2 8.6
2017-Jun-05 20:00S 43°12' W 073°12'1312.8 360 / 211016.1 10.7 8.4
2017-Jun-05 19:00S 43°24' W 073°18'6 6.0 360 / 251016.1 10.3 8.0
2017-Jun-05 18:00S 43°30' W 073°18'1212.0 360 / 281016.0 10.3 7.6
2017-Jun-05 17:00S 43°42' W 073°18'1212.0 360 / 281016.4 10.3 7.3
2017-Jun-05 16:00S 43°54' W 073°18'7 7.4 010 / 301016.3 10.1 7.0
2017-Jun-05 15:00S 44°00' W 073°24'1212.0 010 / 311015.9 9.4 6.9
2017-Jun-05 14:00S 44°12' W 073°24'   010 / 291015.7 9.6 6.7
Track history (hours):
 
Tides and Currents Weather Stations Pressure Air Temp Water Temp Dewpoint Dewpoint Depression Visibility Wind Speed Wind Dir Waves Ship Positions

Oceanographic research ship Laurence M. Gould (USA)

Detailed information on ship capabilities available from University of Delaware's Ocean Information Center.

Owner: Offshore Service Vessels LLC, GALLIANO, LA. More information available from US FCC via Universal Licensing System and Coast Guard Vessel Documentation Center.

Last reported at 2017-Jun-15 14:00 UTC. Time now 2017-Jun-25 05:19 UTC.
Position S 36°36' W 073°00'.
Warning: this ship's position is 9 days out of date.

Type: Ship. MMSI: 368138000.

Wind from 030 at 17 knots

Barometer 1010.6 mb
Air temperature 13.8 ° C
Dewpoint 8.3 ° C

Date/timePositionNaut miles runAvg speedWind from/ knotsBaromVisibWave heightAir tempDewpointWater temp
2017-Jun-15 14:00S 36°36' W 073°00'0 0.0 030 / 171010.6 13.8 8.3
2017-Jun-15 13:00S 36°36' W 073°00'0 0.0 030 / 141011.0 13.6 8.6
2017-Jun-15 12:00S 36°36' W 073°00'0 0.0 030 / 161011.1 13.7 9.1
2017-Jun-15 11:00S 36°36' W 073°00'0 0.0 020 / 151011.4 13.5 9.6
2017-Jun-15 10:00S 36°36' W 073°00'0 0.0 020 / 151011.8 13.5 9.8
2017-Jun-15 09:00S 36°36' W 073°00'0 0.0 020 / 151012.4 13.410.1
2017-Jun-15 08:00S 36°36' W 073°00'0 0.0 020 / 161012.7 13.410.1
2017-Jun-15 07:00S 36°36' W 073°00'0 0.0 030 / 191013.2 13.210.3
2017-Jun-15 06:00S 36°36' W 073°00'0 0.0 020 / 141014.0 12.710.7
2017-Jun-15 05:00S 36°36' W 073°00'0 0.0 020 / 141014.5 12.311.1
2017-Jun-15 04:00S 36°36' W 073°00'0 0.0 010 / 141014.8 12.611.1
2017-Jun-15 03:00S 36°36' W 073°00'0 0.0 020 / 121015.1 12.810.7
2017-Jun-15 02:00S 36°36' W 073°00'0 0.0 020 / 151015.2 13.010.2
2017-Jun-15 01:00S 36°36' W 073°00'0 0.0 020 / 121015.5 12.810.4
2017-Jun-15 00:00S 36°36' W 073°00'0 0.0 020 / 111015.8 12.710.8
2017-Jun-14 23:00S 36°36' W 073°00'0 0.0 020 / 121015.7 12.510.7
2017-Jun-14 22:00S 36°36' W 073°00'0 0.0 020 / 111015.6 12.510.4
2017-Jun-14 21:00S 36°36' W 073°00'0 0.0 020 / 161015.0 12.210.4
2017-Jun-14 20:00S 36°36' W 073°00'0 0.0 020 / 121015.1 11.910.3
2017-Jun-14 19:00S 36°36' W 073°00'0 0.0 020 / 111015.4 11.510.0
2017-Jun-14 18:00S 36°36' W 073°00'0 0.0 010 / 121015.8 11.9 9.8
2017-Jun-14 17:00S 36°36' W 073°00'0 0.0 020 / 131015.9 12.4 9.4
2017-Jun-14 16:00S 36°36' W 073°00'0 0.0 020 / 131016.0 12.5 9.7
2017-Jun-14 15:00S 36°36' W 073°00'0 0.0 010 / 91016.2 12.1 9.7
2017-Jun-14 14:00S 36°36' W 073°00'0 0.0 010 / 81016.0 11.7 9.1
2017-Jun-14 13:00S 36°36' W 073°00'0 0.0 010 / 61015.5 11.6 9.0
2017-Jun-14 12:00S 36°36' W 073°00'0 0.0 270 / 11015.3 8.4 6.3
2017-Jun-14 11:00S 36°36' W 073°00'0 0.0 200 / 21014.9 8.1 5.7
2017-Jun-14 10:00S 36°36' W 073°00'0 0.0 200 / 21015.2 8.0 5.6
2017-Jun-14 09:00S 36°36' W 073°00'0 0.0 200 / 11015.5 8.2 5.8
2017-Jun-14 08:00S 36°36' W 073°00'0 0.0 200 / 11015.8 8.2 5.8
2017-Jun-14 07:00S 36°36' W 073°00'0 0.0 200 / 21016.0 8.4 5.9
2017-Jun-14 06:00S 36°36' W 073°00'0 0.0 200 / 21016.2 8.5 5.9
2017-Jun-14 05:00S 36°36' W 073°00'0 0.0 060 / 31016.6 10.1 6.7
2017-Jun-14 04:00S 36°36' W 073°00'0 0.0 050 / 41017.0 10.1 6.7
2017-Jun-14 03:00S 36°36' W 073°00'0 0.0 070 / 61017.4 10.2 6.6
2017-Jun-14 02:00S 36°36' W 073°00'0 0.0 060 / 31017.8 10.5 6.3
2017-Jun-14 01:00S 36°36' W 073°00'0 0.0 060 / 41017.8 10.6 6.3
2017-Jun-14 00:00S 36°36' W 073°00'0 0.0 070 / 51017.7 10.5 6.6
2017-Jun-13 23:00S 36°36' W 073°00'0 0.0 070 / 61017.8 10.7 6.5
2017-Jun-13 22:00S 36°36' W 073°00'0 0.0 050 / 51017.5 11.3 7.2
2017-Jun-13 21:00S 36°36' W 073°00'0 0.0 040 / 51017.4 11.7 7.5
2017-Jun-13 20:00S 36°36' W 073°00'0 0.0 030 / 61017.3 12.0 7.7
2017-Jun-13 19:00S 36°36' W 073°00'0 0.0 030 / 71017.6 11.7 7.5
2017-Jun-13 18:00S 36°36' W 073°00'0 0.0 040 / 61017.9 11.7 7.2
2017-Jun-13 17:00S 36°36' W 073°00'0 0.0 040 / 21019.2 11.3 6.1
2017-Jun-13 16:00S 36°36' W 073°00'0 0.0 170 / 11019.8 10.3 5.5
2017-Jun-13 15:00S 36°36' W 073°00'0 0.0 160 / 21019.7 9.2 5.0
2017-Jun-13 14:00S 36°36' W 073°00'0 0.0 210 / 11019.5 8.6 4.2
2017-Jun-13 13:00S 36°36' W 073°00'0 0.0 200 / 31019.1 7.8 4.2
2017-Jun-13 12:00S 36°36' W 073°00'0 0.0 190 / 21019.1 8.4 5.2
2017-Jun-13 11:00S 36°36' W 073°00'0 0.0 020 / 31018.1 8.3 5.0
2017-Jun-13 10:00S 36°36' W 073°00'0 0.0 220 / 21018.7 7.9 4.5
2017-Jun-13 09:00S 36°36' W 073°00'0 0.0 190 / 21019.2 8.6 4.6
2017-Jun-13 08:00S 36°36' W 073°00'0 0.0 210 / 21018.9 8.1 4.3
2017-Jun-13 07:00S 36°36' W 073°00'0 0.0 190 / 21019.2 8.6 4.3
2017-Jun-13 06:00S 36°36' W 073°00'0 0.0 200 / 31019.3 8.9 4.3
2017-Jun-13 05:00S 36°36' W 073°00'0 0.0 200 / 21019.2 8.7 4.4
2017-Jun-13 04:00S 36°36' W 073°00'0 0.0 200 / 21019.0 8.8 4.3
2017-Jun-13 03:00S 36°36' W 073°00'0 0.0 200 / 31018.5 9.0 5.0
2017-Jun-13 02:00S 36°36' W 073°00'0 0.0 200 / 11018.6 9.1 5.6
2017-Jun-13 01:00S 36°36' W 073°00'0 0.0 170 / 11018.7 10.0 5.6
2017-Jun-13 00:00S 36°36' W 073°00'0 0.0 210 / 41018.3 10.8 4.9
2017-Jun-12 23:00S 36°36' W 073°00'0 0.0 230 / 41017.7 10.3 4.2
2017-Jun-12 22:00S 36°36' W 073°00'0 0.0 250 / 41017.0 10.5 3.1
2017-Jun-12 21:00S 36°36' W 073°00'0 0.0 240 / 41016.7 11.2 2.1
2017-Jun-12 20:00S 36°36' W 073°00'0 0.0 230 / 71017.0 11.3 3.9
2017-Jun-12 19:00S 36°36' W 073°00'0 0.0 200 / 81017.1 11.1 3.7
2017-Jun-12 18:00S 36°36' W 073°00'0 0.0 190 / 101017.9 10.5 2.9
2017-Jun-12 17:00S 36°36' W 073°00'0 0.0 190 / 81018.7 9.6 2.4
2017-Jun-12 16:00S 36°36' W 073°00'0 0.0 180 / 71019.4 8.5 2.4
2017-Jun-12 15:00S 36°36' W 073°00'0 0.0 190 / 61019.5 7.0 2.1
2017-Jun-12 14:00S 36°36' W 073°00'0 0.0 200 / 51019.4 6.5 1.8
2017-Jun-12 13:00S 36°36' W 073°00'0 0.0 210 / 41019.5 6.5 1.7
2017-Jun-12 12:00S 36°36' W 073°00'0 0.0 200 / 41019.6 6.6 1.8
2017-Jun-12 11:00S 36°36' W 073°00'0 0.0 200 / 51019.2 7.1 1.9
2017-Jun-12 10:00S 36°36' W 073°00'0 0.0 180 / 61019.3 6.5 2.2
2017-Jun-12 09:00S 36°36' W 073°00'0 0.0 180 / 71019.3 6.6 2.5
2017-Jun-12 08:00S 36°36' W 073°00'0 0.0 190 / 51019.5 7.0 2.1
2017-Jun-12 07:00S 36°36' W 073°00'0 0.0 190 / 51019.6 6.6 2.0
2017-Jun-12 06:00S 36°36' W 073°00'0 0.0 200 / 31020.2 7.5 2.5
2017-Jun-12 05:00S 36°36' W 073°00'0 0.0 210 / 11021.1 8.3 1.4
2017-Jun-12 04:00S 36°36' W 073°00'0 0.0 240 / 21021.2 8.3 1.7
2017-Jun-12 03:00S 36°36' W 073°00'0 0.0 190 / 41021.0 9.2 1.9
2017-Jun-12 02:00S 36°36' W 073°00'0 0.0 200 / 51020.5 9.7 1.8
2017-Jun-12 01:00S 36°36' W 073°00'0 0.0 190 / 61020.3 10.1 2.6
2017-Jun-12 00:00S 36°36' W 073°00'0 0.0 170 / 51020.1 10.5 4.8
2017-Jun-11 23:00S 36°36' W 073°00'0 0.0 210 / 71020.0 11.2 5.5
2017-Jun-11 22:00S 36°36' W 073°00'0 0.0 220 / 91019.9 11.8 5.7
2017-Jun-11 21:00S 36°36' W 073°00'0 0.0 220 / 91019.4 12.2 4.8
2017-Jun-11 20:00S 36°36' W 073°00'0 0.0 220 / 111019.4 12.2 3.7
2017-Jun-11 19:00S 36°36' W 073°00'0 0.0 210 / 111019.7 12.6 2.7
2017-Jun-11 18:00S 36°36' W 073°00'0 0.0 180 / 101020.3 12.5 1.8
2017-Jun-11 17:00S 36°36' W 073°00'0 0.0 180 / 121021.4 11.7 1.9
2017-Jun-11 16:00S 36°36' W 073°00'0 0.0 180 / 131022.2 10.5 1.7
2017-Jun-11 15:00S 36°36' W 073°00'0 0.0 180 / 141022.6 9.6 2.1
2017-Jun-11 14:00S 36°36' W 073°00'0 0.0 190 / 151022.8 8.9 2.3
2017-Jun-11 13:00S 36°36' W 073°00'0 0.0 200 / 121022.7 8.7 2.9
2017-Jun-11 12:00S 36°36' W 073°00'0 0.0 190 / 131022.5 8.8 3.3
2017-Jun-11 11:00S 36°36' W 073°00'0 0.0 190 / 131022.2 9.0 3.8
2017-Jun-11 10:00S 36°36' W 073°00'0 0.0 190 / 121022.1 9.1 4.6
2017-Jun-11 09:00S 36°36' W 073°00'0 0.0 180 / 111022.2 9.4 5.4
2017-Jun-11 08:00S 36°36' W 073°00'0 0.0 190 / 101022.3 9.4 5.9
2017-Jun-11 07:00S 36°36' W 073°00'0 0.0 200 / 71022.3 9.4 6.4
2017-Jun-11 06:00S 36°36' W 073°00'0 0.0 200 / 71022.4 9.8 6.8
2017-Jun-11 05:00S 36°36' W 073°00'0 0.0 210 / 71022.7 10.3 7.1
2017-Jun-11 04:00S 36°36' W 073°00'0 0.0 200 / 111022.7 10.6 7.1
2017-Jun-11 03:00S 36°36' W 073°00'0 0.0 210 / 111022.2 11.1 7.5
2017-Jun-11 02:00S 36°36' W 073°00'0 0.0 210 / 111021.9 11.5 7.9
2017-Jun-11 01:00S 36°36' W 073°00'0 0.0 200 / 141021.7 11.9 8.4
2017-Jun-11 00:00S 36°36' W 073°00'0 0.0 210 / 131021.2 12.3 8.1
2017-Jun-10 23:00S 36°36' W 073°00'0 0.0 210 / 121021.0 12.8 8.4
2017-Jun-10 22:00S 36°36' W 073°00'0 0.0 220 / 111021.0 13.4 9.5
2017-Jun-10 21:00S 36°36' W 073°00'0 0.0 220 / 91021.2 14.011.1
2017-Jun-10 20:00S 36°36' W 073°00'0 0.0 220 / 101021.2 14.211.1
2017-Jun-10 19:00S 36°36' W 073°00'0 0.0 220 / 91021.6 14.711.0
2017-Jun-10 18:00S 36°36' W 073°00'0 0.0 210 / 91022.1 14.410.8
2017-Jun-10 17:00S 36°36' W 073°00'0 0.0 200 / 61022.8 13.711.3
2017-Jun-10 16:00S 36°36' W 073°00'0 0.0 170 / 11023.5 13.211.5
2017-Jun-10 15:00S 36°36' W 073°00'0 0.0 200 / 31024.0 12.610.4
2017-Jun-10 14:00S 36°36' W 073°00'0 0.0 200 / 41023.8 10.5 9.0
2017-Jun-10 13:00S 36°36' W 073°00'0 0.0 170 / 41023.5 10.0 8.8
2017-Jun-10 12:00S 36°36' W 073°00'0 0.0 200 / 71023.4 10.9 9.2
2017-Jun-10 11:00S 36°36' W 073°00'0 0.0 190 / 31023.6 9.2 8.3
2017-Jun-10 10:00S 36°36' W 073°00'0 0.0 190 / 31023.9 9.8 8.6
2017-Jun-10 09:00S 36°36' W 073°00'0 0.0 190 / 41024.2 9.7 8.7
2017-Jun-10 08:00S 36°36' W 073°00'0 0.0 190 / 51024.7 9.8 9.0
2017-Jun-10 07:00S 36°36' W 073°00'0 0.0 170 / 51024.6 8.9 8.2
2017-Jun-10 06:00S 36°36' W 073°00'0 0.0 190 / 81025.2 10.2 9.1
2017-Jun-10 05:00S 36°36' W 073°00'0 0.0 180 / 61025.7 10.3 9.1
2017-Jun-10 04:00S 36°36' W 073°00'0 0.0 200 / 101026.1 11.3 9.9
2017-Jun-10 03:00S 36°36' W 073°00'0 0.0 200 / 81026.1 11.510.2
2017-Jun-10 02:00S 36°36' W 073°00'0 0.0 200 / 71026.3 11.610.1
2017-Jun-10 01:00S 36°36' W 073°00'0 0.0 200 / 61026.6 11.910.2
2017-Jun-10 00:00S 36°36' W 073°00'0 0.0 210 / 61026.5 12.410.3
2017-Jun-09 23:00S 36°36' W 073°00'0 0.0 220 / 21026.4 12.410.2
2017-Jun-09 22:00S 36°36' W 073°00'0 0.0 240 / 41026.5 12.810.4
2017-Jun-09 21:00S 36°36' W 073°00'0 0.0 270 / 31026.6 13.310.3
2017-Jun-09 20:00S 36°36' W 073°00'0 0.0 010 / 21027.0 13.9 9.5
2017-Jun-09 19:00S 36°36' W 073°00'0 0.0 030 / 21027.6 13.8 9.1
2017-Jun-09 18:00S 36°36' W 073°00'0 0.0 040 / 31028.2 13.5 8.8
2017-Jun-09 17:00S 36°36' W 073°00'0 0.0 080 / 11029.1 14.0 8.9
2017-Jun-09 16:00S 36°36' W 073°00'0 0.0 060 / 31029.8 13.2 8.7
2017-Jun-09 15:00S 36°36' W 073°00'0 0.0 040 / 41030.2 12.0 8.5
2017-Jun-09 14:00S 36°36' W 073°00'0 0.0 070 / 21030.5 11.2 8.1
2017-Jun-09 13:00S 36°36' W 073°00'0 0.0 040 / 11030.3 10.6 7.9
2017-Jun-09 12:00S 36°36' W 073°00'0 0.0 360 / 21030.4 10.5 7.6
2017-Jun-09 11:00S 36°36' W 073°00'0 0.0 010 / 41030.1 10.2 7.0
2017-Jun-09 10:00S 36°36' W 073°00'0 0.0 250 / 21030.9 9.2 6.6
2017-Jun-09 09:00S 36°36' W 073°00'0 0.0 180 / 31031.2 9.3 6.5
2017-Jun-09 08:00S 36°36' W 073°00'0 0.0 210 / 21031.3 9.3 6.6
2017-Jun-09 07:00S 36°36' W 073°00'0 0.0 210 / 11031.7 9.5 5.9
2017-Jun-09 06:00S 36°36' W 073°00'0 0.0 210 / 21032.0 9.3 5.9
2017-Jun-09 05:00S 36°36' W 073°00'0 0.0 210 / 31032.4 9.9 6.5
2017-Jun-09 04:00S 36°36' W 073°00'0 0.0 190 / 21032.6 10.7 7.3
2017-Jun-09 03:00S 36°36' W 073°00'0 0.0 320 1033.0 11.5 7.6
2017-Jun-09 02:00S 36°36' W 073°00'0 0.0 020 / 11033.3 11.7 7.0
2017-Jun-09 01:00S 36°36' W 073°00'0 0.0 010 1033.5 11.9 6.7
2017-Jun-09 00:00S 36°36' W 073°00'0 0.0 020 / 11033.2 11.7 6.4
2017-Jun-08 23:00S 36°36' W 073°00'0 0.0 350 1033.1 11.9 7.2
2017-Jun-08 22:00S 36°36' W 073°00'0 0.0 340 / 11033.1 12.1 7.1
2017-Jun-08 21:00S 36°36' W 073°00'0 0.0 020 / 11032.9 12.7 7.3
2017-Jun-08 20:00S 36°36' W 073°00'0 0.0 040 / 21033.0 13.3 7.2
2017-Jun-08 19:00S 36°36' W 073°00'0 0.0 040 / 11033.2 12.9 6.9
2017-Jun-08 18:00S 36°36' W 073°00'0 0.0 040 / 31033.5 12.3 6.6
2017-Jun-08 17:00S 36°36' W 073°00'0 0.0 150 / 21033.6 11.6 6.7
2017-Jun-08 16:00S 36°36' W 073°00'0 0.0 160 / 11033.7 10.2 6.9
2017-Jun-08 15:00S 36°36' W 073°00'0 0.0 180 / 21033.6 8.4 6.2
2017-Jun-08 14:00S 36°36' W 073°00'6 6.0 180 / 11033.0 8.5 5.8
2017-Jun-08 13:00S 36°42' W 073°00'6 6.0 180 / 11032.3 9.2 6.9
2017-Jun-08 12:00S 36°36' W 073°00'6 6.0 180 / 21031.5 9.9 7.0
2017-Jun-08 11:00S 36°30' W 073°00'5 4.8 150 / 41030.9 10.9 6.1
2017-Jun-08 10:00S 36°30' W 073°06'5 4.8 140 / 31030.5 11.4 4.6
2017-Jun-08 09:00S 36°30' W 073°12'8 7.7 100 / 41030.0 11.2 5.6
2017-Jun-08 08:00S 36°36' W 073°18'8 7.7 150 / 51029.8 11.2 5.8
2017-Jun-08 07:00S 36°42' W 073°24'0 0.0 180 / 51029.2 11.2 5.8
2017-Jun-08 06:00S 36°42' W 073°24'8 7.7 210 / 71028.8 11.0 5.9
2017-Jun-08 05:00S 36°48' W 073°30'8 7.7 170 / 81028.3 11.0 5.5
2017-Jun-08 04:00S 36°54' W 073°36'6 6.0 170 / 121027.2 11.4 5.5
2017-Jun-08 03:00S 37°00' W 073°36'8 7.7 190 / 201026.2 11.5 5.3
2017-Jun-08 02:00S 37°06' W 073°42'6 6.0 200 / 171025.2 11.3 5.3
2017-Jun-08 01:00S 37°12' W 073°42'8 7.7 200 / 221024.0 11.5 4.6
2017-Jun-08 00:00S 37°18' W 073°48'6 6.0 200 / 151022.8 10.6 6.2
2017-Jun-07 23:00S 37°24' W 073°48'0 0.0 200 / 181021.5 10.7 5.6
2017-Jun-07 22:00S 37°24' W 073°48'8 7.7 200 / 281019.9 11.0 4.8
2017-Jun-07 21:00S 37°30' W 073°54'6 6.0 210 / 281018.6 11.8 5.3
2017-Jun-07 20:00S 37°36' W 073°54'1312.9 210 / 281017.6 12.2 4.7
2017-Jun-07 19:00S 37°48' W 074°00'6 6.0 210 / 291017.0 12.1 4.8
2017-Jun-07 18:00S 37°54' W 074°00'6 6.0 220 / 291016.4 12.2 5.3
2017-Jun-07 17:00S 38°00' W 074°00'6 6.0 220 / 291015.8 11.5 7.9
2017-Jun-07 16:00S 38°06' W 074°00'6 6.0 240 / 241015.1 12.7 8.2
2017-Jun-07 15:00S 38°12' W 074°00'6 6.0 240 / 221014.3 12.9 8.2
2017-Jun-07 14:00S 38°18' W 074°00'6 6.0 240 / 211013.6 12.7 8.5
2017-Jun-07 13:00S 38°24' W 074°00'6 6.0 240 / 201012.7 12.1 8.9
2017-Jun-07 12:00S 38°30' W 074°00'6 6.0 240 / 211011.8 12.8 9.4
2017-Jun-07 11:00S 38°36' W 074°00'1212.0 240 / 231010.9 12.4 9.8
2017-Jun-07 10:00S 38°48' W 074°00'0 0.0 240 / 221010.2 12.710.3
2017-Jun-07 09:00S 38°48' W 074°00'1212.0 250 / 201010.1 13.011.0
2017-Jun-07 08:00S 39°00' W 074°00'6 6.0 260 / 201010.2 12.711.4
2017-Jun-07 07:00S 39°06' W 074°00'6 6.0 270 / 171010.4 12.811.8
2017-Jun-07 06:00S 39°12' W 074°00'6 6.0 280 / 171010.8 12.711.9
2017-Jun-07 05:00S 39°18' W 074°00'6 6.0 280 / 181011.3 12.711.9
2017-Jun-07 04:00S 39°24' W 074°00'6 6.0 280 / 181011.5 12.711.8
2017-Jun-07 03:00S 39°30' W 074°00'1212.0 290 / 171011.8 12.511.8
2017-Jun-07 02:00S 39°42' W 074°00'6 6.0 290 / 191011.9 12.511.6
2017-Jun-07 01:00S 39°48' W 074°00'6 6.0 290 / 201012.0 12.311.5
2017-Jun-07 00:00S 39°54' W 074°00'6 6.0 300 / 221011.9 12.211.3
2017-Jun-06 23:00S 40°00' W 074°00'6 6.0 310 / 221012.0 11.910.9
2017-Jun-06 22:00S 40°06' W 074°00'1212.0 310 / 211012.3 11.710.6
2017-Jun-06 21:00S 40°18' W 074°00'6 6.0 300 / 211012.5 11.710.3
2017-Jun-06 20:00S 40°24' W 074°00'6 6.0 300 / 211012.7 12.210.0
2017-Jun-06 19:00S 40°30' W 074°00'1212.0 300 / 211012.8 11.810.3
2017-Jun-06 18:00S 40°42' W 074°00'6 6.0 310 / 221013.2 11.810.6
2017-Jun-06 17:00S 40°48' W 074°00'6 6.0 320 / 211013.9 12.010.6
2017-Jun-06 16:00S 40°54' W 074°00'1212.0 320 / 201014.3 12.410.4
2017-Jun-06 15:00S 41°06' W 074°00'6 6.0 320 / 221014.2 12.110.6
2017-Jun-06 14:00S 41°12' W 074°00'6 6.0 310 / 221013.9 12.110.3
2017-Jun-06 13:00S 41°18' W 074°00'1212.0 310 / 221013.6 11.910.3
2017-Jun-06 12:00S 41°30' W 074°00'7 7.5 310 / 231013.5 12.010.1
2017-Jun-06 11:00S 41°36' W 073°54'7 7.5 300 / 231013.6 12.4 9.8
2017-Jun-06 10:00S 41°42' W 073°48'0 0.0 300 / 191013.8 11.5 9.9
2017-Jun-06 09:00S 41°42' W 073°48'4 4.5 300 / 181014.6 11.3 9.6
2017-Jun-06 08:00S 41°42' W 073°42'9 9.0 310 / 221015.2 11.810.1
2017-Jun-06 07:00S 41°42' W 073°30'7 7.5 350 / 161015.6 10.7 9.1
2017-Jun-06 06:00S 41°48' W 073°24'7 7.5 010 / 161016.1 10.9 9.2
2017-Jun-06 05:00S 41°54' W 073°18'4 4.5 330 / 141016.6 10.6 9.7
2017-Jun-06 04:00S 41°54' W 073°24'7 7.5 350 / 161016.8 10.9 9.3
2017-Jun-06 03:00S 42°00' W 073°18'6 6.0 360 / 201016.8 11.3 9.4
2017-Jun-06 02:00S 42°06' W 073°18'1312.8 360 / 181016.7 11.8 9.3
2017-Jun-06 01:00S 42°18' W 073°12'1212.0 350 / 191016.8 11.7 8.9
2017-Jun-06 00:00S 42°30' W 073°12'1212.0 010 / 201016.8 11.0 9.0
2017-Jun-05 23:00S 42°42' W 073°12'6 6.0 010 / 191016.7 11.0 9.0
2017-Jun-05 22:00S 42°48' W 073°12'1212.0 010 / 241016.3 10.8 8.7
2017-Jun-05 21:00S 43°00' W 073°12'1212.0 010 / 221016.2 11.2 8.6
2017-Jun-05 20:00S 43°12' W 073°12'1312.8 360 / 211016.1 10.7 8.4
2017-Jun-05 19:00S 43°24' W 073°18'6 6.0 360 / 251016.1 10.3 8.0
2017-Jun-05 18:00S 43°30' W 073°18'1212.0 360 / 281016.0 10.3 7.6
2017-Jun-05 17:00S 43°42' W 073°18'1212.0 360 / 281016.4 10.3 7.3
2017-Jun-05 16:00S 43°54' W 073°18'7 7.4 010 / 301016.3 10.1 7.0
2017-Jun-05 15:00S 44°00' W 073°24'1212.0 010 / 311015.9 9.4 6.9
2017-Jun-05 14:00S 44°12' W 073°24'   010 / 291015.7 9.6 6.7

Dump ship's entire track history